Time;durP1;ratioP1;P1;durP2;ratioP2;P2;SDS_P1;SDS_P2;PMS_P1;PMS_P2;Temp;Humidity;BMP_temperature;BMP_pressure;BME280_temperature;BME280_humidity;BME280_pressure;Samples;Min_cycle;Max_cycle;Signal;HPM_P1;HPM_P2
2022/02/20 00:01:42;;;;;;;6.20;2.85;;;;;;;2.11;58.42;92776.69;2052041;70;20196;-70
2022/02/20 00:04:08;;;;;;;9.77;3.15;;;;;;;2.05;58.11;92774.09;2051970;70;20142;-71
2022/02/20 00:06:34;;;;;;;6.03;2.45;;;;;;;1.92;59.44;92775.00;2051999;70;20147;-71
2022/02/20 00:09:00;;;;;;;9.77;3.00;;;;;;;1.81;59.89;92782.97;2052085;70;20151;-71
2022/02/20 00:11:26;;;;;;;6.20;2.75;;;;;;;1.90;58.77;92774.09;2052064;70;20181;-71
2022/02/20 00:13:52;;;;;;;5.60;2.58;;;;;;;1.89;58.97;92773.38;2052128;70;20174;-71
2022/02/20 00:16:18;;;;;;;6.57;2.72;;;;;;;1.97;57.80;92778.91;2052099;70;20471;-71
2022/02/20 00:18:45;;;;;;;3.88;2.17;;;;;;;1.99;58.13;92777.06;2052068;70;20257;-73
2022/02/20 00:21:10;;;;;;;4.45;2.03;;;;;;;2.01;58.24;92780.03;2051885;70;20154;-71
2022/02/20 00:23:36;;;;;;;5.53;1.92;;;;;;;2.08;57.15;92777.81;2052026;70;20324;-70
2022/02/20 00:26:02;;;;;;;5.05;2.25;;;;;;;1.94;57.36;92780.78;2052104;70;20146;-70
2022/02/20 00:28:27;;;;;;;6.38;2.45;;;;;;;2.01;57.51;92782.81;2052037;70;20150;-71
2022/02/20 00:30:53;;;;;;;6.80;2.30;;;;;;;1.80;58.77;92787.78;2052049;70;20605;-71
2022/02/20 00:33:20;;;;;;;4.47;1.90;;;;;;;1.92;57.67;92799.25;2052052;69;20620;-72
2022/02/20 00:35:46;;;;;;;5.03;2.35;;;;;;;1.88;57.67;92796.88;2051771;70;20190;-70
2022/02/20 00:38:13;;;;;;;6.63;2.33;;;;;;;1.83;58.04;92794.25;2052056;70;20162;-70
2022/02/20 00:40:39;;;;;;;4.28;2.30;;;;;;;1.89;57.13;92792.78;2052002;70;20150;-70
2022/02/20 00:43:05;;;;;;;4.78;2.20;;;;;;;1.82;58.19;92803.88;2052007;69;20173;-70
2022/02/20 00:45:31;;;;;;;5.55;2.00;;;;;;;1.84;58.43;92809.63;2052009;70;20662;-70
2022/02/20 00:47:56;;;;;;;5.45;2.20;;;;;;;1.86;57.26;92801.47;2064965;69;20182;-70
2022/02/20 00:50:24;;;;;;;5.13;2.45;;;;;;;1.95;57.08;92806.50;2051846;70;20168;-72
2022/02/20 00:52:49;;;;;;;4.95;2.22;;;;;;;2.09;56.89;92809.84;2051974;70;20173;-69
2022/02/20 00:55:15;;;;;;;5.13;2.08;;;;;;;1.86;57.59;92815.34;2052046;70;20242;-70
2022/02/20 00:57:41;;;;;;;4.20;2.00;;;;;;;1.59;59.52;92821.19;2064907;69;20470;-70
2022/02/20 01:00:10;;;;;;;3.92;2.15;;;;;;;1.83;58.71;92816.44;2052017;70;20233;-70
2022/02/20 01:02:36;;;;;;;3.72;1.90;;;;;;;1.81;58.67;92813.50;2051967;70;20157;-73
2022/02/20 01:05:03;;;;;;;5.15;2.30;;;;;;;1.77;58.70;92814.59;2064845;69;20147;-71
2022/02/20 01:07:29;;;;;;;6.03;2.33;;;;;;;1.68;59.40;92829.00;2052075;70;20153;-70
2022/02/20 01:09:55;;;;;;;4.93;2.08;;;;;;;1.67;59.23;92830.28;2064845;69;20146;-70
2022/02/20 01:12:21;;;;;;;6.43;2.50;;;;;;;1.75;58.69;92813.69;2064911;69;20228;-71
2022/02/20 01:14:47;;;;;;;4.28;2.30;;;;;;;1.69;58.40;92808.28;2051966;69;20238;-74
2022/02/20 01:17:14;;;;;;;4.53;2.38;;;;;;;1.78;58.51;92820.88;2064935;69;20181;-70
2022/02/20 01:19:40;;;;;;;4.68;2.08;;;;;;;1.74;58.37;92803.84;2064840;69;20138;-70
2022/02/20 01:22:06;;;;;;;5.43;2.20;;;;;;;1.75;58.48;92794.97;2051877;70;20624;-70
2022/02/20 01:24:33;;;;;;;7.40;2.60;;;;;;;1.49;60.29;92798.03;2064945;69;20162;-71
2022/02/20 01:26:59;;;;;;;5.75;1.88;;;;;;;1.71;58.88;92800.16;2064908;69;20150;-70
2022/02/20 01:29:25;;;;;;;3.90;1.77;;;;;;;2.27;55.81;92789.31;2051874;70;20181;-70
2022/02/20 01:31:53;;;;;;;2.60;1.50;;;;;;;2.37;55.03;92786.72;2064800;69;20162;-70
2022/02/20 01:34:19;;;;;;;4.20;1.60;;;;;;;2.30;55.66;92774.31;2051918;70;20181;-69
2022/02/20 01:36:46;;;;;;;3.20;1.60;;;;;;;2.22;54.97;92774.31;2051765;70;20186;-70
2022/02/20 01:39:17;;;;;;;3.53;1.90;;;;;;;2.36;54.20;92774.13;2064878;69;20166;-73
2022/02/20 01:41:42;;;;;;;3.00;1.67;;;;;;;2.45;54.13;92788.22;2064783;69;20576;-73
2022/02/20 01:44:08;;;;;;;3.47;1.73;;;;;;;2.37;54.23;92776.34;2051919;70;20162;-71
2022/02/20 01:46:37;;;;;;;2.20;1.50;;;;;;;2.39;54.49;92792.47;2064939;69;20178;-72
2022/02/20 01:49:02;;;;;;;3.70;2.30;;;;;;;2.42;54.24;92786.53;2065269;69;20259;-71
2022/02/20 01:51:28;;;;;;;4.15;1.90;;;;;;;2.37;54.87;92786.72;2052269;70;20649;-73
2022/02/20 01:53:54;;;;;;;5.72;1.70;;;;;;;2.18;55.91;92787.09;2052387;70;20176;-74
2022/02/20 01:56:20;;;;;;;6.07;1.83;;;;;;;2.38;54.75;92783.38;2065310;69;20146;-72
2022/02/20 01:59:16;;;;;;;2.90;1.60;;;;;;;2.64;52.76;92773.94;2059816;69;20160;-72
2022/02/20 02:01:48;;;;;;;2.17;1.25;;;;;;;2.45;53.64;92765.25;2065146;69;20158;-72
2022/02/20 02:04:33;;;;;;;3.40;1.77;;;;;;;2.47;53.09;92763.38;2051923;69;20569;-70
2022/02/20 02:07:06;;;;;;;2.20;1.50;;;;;;;2.08;54.64;92766.72;2051634;70;20637;-71
2022/02/20 02:09:43;;;;;;;4.22;1.77;;;;;;;2.06;55.09;92756.16;2051732;70;20631;-70
2022/02/20 02:12:27;;;;;;;4.30;1.98;;;;;;;2.23;54.62;92748.00;2065251;69;20625;-70
2022/02/20 02:15:13;;;;;;;2.80;1.30;;;;;;;2.47;53.56;92749.47;2048418;70;20162;-69
2022/02/20 02:17:58;;;;;;;3.35;1.50;;;;;;;2.38;53.79;92754.84;2065157;69;20522;-70
2022/02/20 02:20:49;;;;;;;3.30;1.30;;;;;;;2.24;54.50;92759.84;2064708;69;20240;-70
2022/02/20 02:23:41;;;;;;;2.20;1.33;;;;;;;2.20;55.13;92754.69;2054069;69;20648;-70
2022/02/20 02:26:12;;;;;;;2.72;1.60;;;;;;;1.99;55.89;92763.19;2064978;69;20154;-69
2022/02/20 02:28:52;;;;;;;3.42;1.73;;;;;;;2.22;54.32;92740.97;2065216;69;20146;-72
2022/02/20 02:31:20;;;;;;;6.70;1.60;;;;;;;2.38;53.92;92749.31;2064951;69;20157;-69
2022/02/20 02:33:49;;;;;;;2.13;1.30;;;;;;;2.40;54.01;92741.91;2064996;69;20505;-70
2022/02/20 02:36:16;;;;;;;1.85;1.25;;;;;;;2.53;52.67;92752.09;2065104;69;20138;-73
2022/02/20 02:38:41;;;;;;;4.32;1.42;;;;;;;2.51;53.07;92760.97;2065030;69;20134;-71
2022/02/20 02:41:09;;;;;;;4.20;1.50;;;;;;;2.43;53.47;92770.59;2064902;69;20924;-69
2022/02/20 02:43:37;;;;;;;3.50;1.58;;;;;;;2.41;53.19;92762.81;2064917;69;20609;-72
2022/02/20 02:46:03;;;;;;;2.60;1.30;;;;;;;2.28;53.96;92763.75;2064776;69;20218;-73
2022/02/20 02:48:30;;;;;;;2.10;1.42;;;;;;;2.31;53.85;92780.63;2065090;69;20153;-70
2022/02/20 02:50:56;;;;;;;3.03;1.17;;;;;;;2.42;53.39;92783.75;2065195;69;20154;-69
2022/02/20 02:53:22;;;;;;;2.22;1.20;;;;;;;2.43;53.01;92790.03;2064628;69;20654;-71
2022/02/20 02:55:50;;;;;;;1.58;1.10;;;;;;;2.36;52.40;92790.81;2064704;69;20165;-71
2022/02/20 02:58:26;;;;;;;1.70;1.10;;;;;;;2.59;51.51;92796.34;2051506;70;20216;-71
2022/02/20 03:00:55;;;;;;;2.50;1.25;;;;;;;2.51;52.26;92771.34;2064857;69;20591;-70
2022/02/20 03:03:21;;;;;;;3.00;1.10;;;;;;;2.50;52.32;92761.53;2065300;69;20174;-70
2022/02/20 03:05:47;;;;;;;1.38;1.00;;;;;;;2.64;52.13;92762.06;2051990;70;20655;-75
2022/02/20 03:08:12;;;;;;;1.98;1.10;;;;;;;2.64;51.48;92770.41;2064863;69;20141;-72
2022/02/20 03:10:39;;;;;;;2.03;1.00;;;;;;;2.71;51.03;92756.50;2051704;70;20163;-75
2022/02/20 03:13:05;;;;;;;1.77;1.10;;;;;;;2.79;50.78;92764.81;2065252;69;20148;-75
2022/02/20 03:15:36;;;;;;;3.33;1.27;;;;;;;2.61;51.84;92766.72;2065213;69;20142;-76
2022/02/20 03:18:02;;;;;;;1.60;1.00;;;;;;;2.60;51.71;92758.91;2062458;69;20150;-75
2022/02/20 03:20:28;;;;;;;1.90;1.00;;;;;;;2.58;51.14;92759.50;2065135;69;20155;-72
2022/02/20 03:22:54;;;;;;;1.88;1.10;;;;;;;2.81;50.53;92753.91;2065329;69;20147;-73
2022/02/20 03:25:20;;;;;;;1.58;1.00;;;;;;;2.78;51.32;92761.31;2052249;69;20139;-72
2022/02/20 03:27:45;;;;;;;2.00;1.00;;;;;;;2.74;52.01;92766.50;2065169;69;20624;-71
2022/02/20 03:30:19;;;;;;;3.10;1.30;;;;;;;2.45;52.16;92779.13;2065228;69;20154;-71
2022/02/20 03:32:47;;;;;;;5.18;1.73;;;;;;;2.66;51.42;92768.56;2065173;69;20602;-71
2022/02/20 03:35:18;;;;;;;3.67;1.33;;;;;;;2.53;51.86;92758.38;2051681;70;20229;-70
2022/02/20 03:37:44;;;;;;;2.28;1.08;;;;;;;2.75;51.19;92767.25;2052321;70;20162;-71
2022/02/20 03:40:11;;;;;;;1.05;0.82;;;;;;;2.84;50.62;92774.25;2065240;69;20142;-71
2022/02/20 03:42:37;;;;;;;1.77;0.98;;;;;;;2.95;49.34;92779.44;2065121;69;20225;-71
2022/02/20 03:45:07;;;;;;;1.13;0.90;;;;;;;2.70;48.25;92779.28;2052253;70;20164;-71
2022/02/20 03:47:37;;;;;;;1.45;0.90;;;;;;;3.05;47.14;92788.69;2065223;69;20146;-71
2022/02/20 03:50:04;;;;;;;2.42;0.90;;;;;;;2.91;46.64;92785.38;2065027;69;20150;-70
2022/02/20 03:52:39;;;;;;;1.73;1.10;;;;;;;2.91;46.42;92787.41;2052189;70;20142;-71
2022/02/20 03:55:09;;;;;;;1.98;0.98;;;;;;;3.01;46.61;92791.09;2052229;70;20478;-71
2022/02/20 03:57:43;;;;;;;1.63;1.00;;;;;;;3.03;46.95;92792.03;2065290;69;20157;-71
2022/02/20 04:00:19;;;;;;;1.33;0.90;;;;;;;3.14;47.73;92795.72;2052252;70;20267;-75
2022/02/20 04:03:06;;;;;;;1.90;0.93;;;;;;;2.95;46.93;92791.31;2065156;69;20156;-71
2022/02/20 04:05:32;;;;;;;2.42;1.00;;;;;;;3.05;47.09;92797.75;2065056;69;20612;-72
2022/02/20 04:07:58;;;;;;;2.60;1.10;;;;;;;3.09;46.28;92805.00;2048882;70;20153;-73
2022/02/20 04:10:26;;;;;;;1.58;0.95;;;;;;;3.10;46.39;92801.66;2064829;69;20673;-74
2022/02/20 04:12:52;;;;;;;1.70;0.85;;;;;;;2.88;45.61;92803.16;2064707;69;20233;-72
2022/02/20 04:15:17;;;;;;;1.60;1.00;;;;;;;3.03;46.58;92799.63;2065209;69;20207;-71
2022/02/20 04:17:50;;;;;;;2.78;0.88;;;;;;;3.17;46.68;92797.38;2065161;69;20575;-72
2022/02/20 04:20:19;;;;;;;1.02;0.90;;;;;;;3.19;46.12;92792.72;2051488;70;20149;-71
2022/02/20 04:22:47;;;;;;;3.05;0.80;;;;;;;3.29;45.71;92779.69;2065140;69;20131;-71
2022/02/20 04:25:18;;;;;;;1.55;0.82;;;;;;;3.30;46.24;92788.81;2065079;69;20146;-71
2022/02/20 04:27:44;;;;;;;3.15;0.77;;;;;;;3.38;45.65;92788.78;2052160;70;20233;-71
2022/02/20 04:30:13;;;;;;;1.20;0.80;;;;;;;3.44;45.49;92783.75;2065075;69;20613;-70
2022/02/20 04:32:39;;;;;;;1.30;0.70;;;;;;;3.37;44.78;92790.06;2065038;69;20142;-71
2022/02/20 04:35:05;;;;;;;2.28;0.88;;;;;;;3.19;44.13;92803.13;2052041;70;20146;-71
2022/02/20 04:37:31;;;;;;;2.08;1.00;;;;;;;3.22;45.00;92799.97;2065081;69;20143;-72
2022/02/20 04:40:00;;;;;;;2.75;1.40;;;;;;;3.34;45.38;92803.06;2065065;69;20150;-72
2022/02/20 04:42:29;;;;;;;2.55;1.50;;;;;;;3.50;45.09;92810.06;2065041;69;20626;-75
2022/02/20 04:45:06;;;;;;;3.15;1.90;;;;;;;3.21;46.01;92808.88;2065092;69;20165;-75
2022/02/20 04:47:36;;;;;;;3.03;1.13;;;;;;;3.43;45.92;92804.53;2065034;69;20150;-74
2022/02/20 04:50:02;;;;;;;3.03;1.80;;;;;;;3.43;46.48;92802.47;2064908;69;20212;-73
2022/02/20 04:52:42;;;;;;;3.00;1.00;;;;;;;3.37;46.49;92804.72;2062572;69;20166;-73
2022/02/20 04:55:15;;;;;;;1.83;1.30;;;;;;;3.29;44.97;92810.31;2051576;70;20244;-72
2022/02/20 04:57:41;;;;;;;1.00;0.85;;;;;;;3.44;45.00;92800.47;2065003;69;20245;-75
2022/02/20 05:00:15;;;;;;;1.85;1.20;;;;;;;3.55;44.69;92803.53;2065059;69;20162;-72
2022/02/20 05:03:16;;;;;;;1.42;0.90;;;;;;;3.61;44.67;92802.59;2060602;69;20200;-73
2022/02/20 05:06:00;;;;;;;1.77;1.00;;;;;;;3.60;45.33;92796.28;2052681;69;20224;-71
2022/02/20 05:08:46;;;;;;;2.65;1.15;;;;;;;3.67;44.50;92803.16;2051882;69;20186;-72
2022/02/20 05:11:18;;;;;;;;;;;;;;;3.66;44.14;92801.66;2065233;69;20619;-72
2022/02/20 05:13:51;;;;;;;1.77;1.10;;;;;;;3.52;44.62;92798.38;2064962;69;20043;-72
2022/02/20 05:16:18;;;;;;;5.32;3.00;;;;;;;3.65;45.41;92800.91;2051996;70;20191;-73
2022/02/20 05:18:43;;;;;;;2.88;1.33;;;;;;;3.68;45.27;92799.06;2064965;69;20142;-72
2022/02/20 05:21:09;;;;;;;2.58;1.40;;;;;;;3.70;45.49;92807.56;2051404;70;20142;-72
2022/02/20 05:23:35;;;;;;;1.17;0.98;;;;;;;3.70;44.40;92802.00;2064944;69;20166;-71
2022/02/20 05:26:01;;;;;;;1.50;0.90;;;;;;;3.46;43.52;92812.50;2064960;69;20142;-72
2022/02/20 05:28:28;;;;;;;2.00;1.05;;;;;;;3.72;43.84;92810.53;2062142;69;20573;-72
2022/02/20 05:30:55;;;;;;;2.58;1.13;;;;;;;3.74;43.12;92810.72;2064841;69;20629;-71
2022/02/20 05:33:24;;;;;;;2.70;1.17;;;;;;;3.56;44.09;92798.72;2051444;70;20209;-71
2022/02/20 05:35:51;;;;;;;3.33;1.38;;;;;;;3.76;43.96;92816.47;2051373;70;20150;-71
2022/02/20 05:38:24;;;;;;;1.98;1.40;;;;;;;3.80;44.24;92814.78;2064952;69;20573;-71
2022/02/20 05:40:53;;;;;;;2.25;1.05;;;;;;;3.79;44.42;92815.31;2064966;69;20163;-71
2022/02/20 05:43:18;;;;;;;1.25;1.00;;;;;;;3.71;43.00;92818.16;2064843;69;20146;-71
2022/02/20 05:45:46;;;;;;;2.33;1.00;;;;;;;3.82;43.26;92817.72;2062128;69;20149;-74
2022/02/20 05:48:22;;;;;;;6.55;2.13;;;;;;;3.91;43.94;92813.59;2062381;69;20142;-74
2022/02/20 05:51:20;;;;;;;4.03;1.58;;;;;;;4.03;43.70;92822.25;2054234;69;20161;-71
2022/02/20 05:54:02;;;;;;;2.15;1.10;;;;;;;4.06;43.94;92826.69;2051396;70;20158;-72
2022/02/20 05:56:28;;;;;;;4.15;2.25;;;;;;;3.95;43.78;92819.53;2064860;69;20162;-71
2022/02/20 05:58:56;;;;;;;3.83;1.90;;;;;;;3.95;44.57;92833.44;2064857;69;20142;-71
2022/02/20 06:01:21;;;;;;;4.03;2.10;;;;;;;3.93;44.47;92835.31;2064885;69;20139;-76
2022/02/20 06:03:53;;;;;;;1.85;1.35;;;;;;;3.60;43.90;92835.25;2065005;69;20174;-75
2022/02/20 06:06:37;;;;;;;3.08;1.10;;;;;;;3.73;43.53;92829.47;2051841;70;20154;-77
2022/02/20 06:09:23;;;;;;;1.85;1.15;;;;;;;3.87;43.34;92837.56;2053223;69;20154;-76
2022/02/20 06:11:53;;;;;;;3.88;1.50;;;;;;;3.86;43.09;92831.28;2064853;69;20149;-77
2022/02/20 06:14:30;;;;;;;3.20;1.38;;;;;;;3.93;43.27;92835.31;2051937;70;20130;-76
2022/02/20 06:17:35;;;;;;;3.03;1.40;;;;;;;3.99;43.38;92835.84;2057131;69;20148;-71
2022/02/20 06:20:04;;;;;;;2.60;1.60;;;;;;;3.99;43.25;92835.84;2057113;69;20157;-71
2022/02/20 06:22:48;;;;;;;3.55;1.73;;;;;;;3.94;42.93;92845.91;2053890;69;20149;-71
2022/02/20 06:25:40;;;;;;;2.00;1.40;;;;;;;4.02;42.52;92854.22;2055141;69;20211;-71
2022/02/20 06:28:12;;;;;;;2.28;1.70;;;;;;;3.92;42.95;92850.53;2064882;69;20321;-71
2022/02/20 06:30:39;;;;;;;2.45;1.58;;;;;;;3.82;43.53;92842.78;2064723;69;20149;-71
2022/02/20 06:33:06;;;;;;;4.28;1.88;;;;;;;3.93;43.73;92849.97;2064772;69;20490;-72
2022/02/20 06:35:36;;;;;;;4.63;1.98;;;;;;;3.97;43.29;92853.13;2065195;69;20178;-72
2022/02/20 06:38:02;;;;;;;3.38;1.73;;;;;;;3.87;43.20;92857.81;2065391;69;20154;-71
2022/02/20 06:40:28;;;;;;;7.57;2.70;;;;;;;3.74;42.57;92856.00;2062562;69;20533;-72
2022/02/20 06:42:58;;;;;;;9.70;2.10;;;;;;;3.99;43.00;92858.13;2065293;69;20615;-72
2022/02/20 06:45:27;;;;;;;2.75;1.90;;;;;;;4.18;42.41;92871.59;2065359;69;20158;-71
2022/02/20 06:47:58;;;;;;;2.78;1.58;;;;;;;4.27;42.80;92879.34;2052525;70;20570;-71
2022/02/20 06:50:33;;;;;;;3.58;2.05;;;;;;;4.21;42.89;92876.75;2065246;69;20154;-71
2022/02/20 06:53:17;;;;;;;8.93;4.18;;;;;;;4.06;42.85;92869.22;2052387;70;20184;-71
2022/02/20 06:56:23;;;;;;;9.32;3.92;;;;;;;4.13;43.17;92878.13;2054781;69;20235;-71
2022/02/20 06:58:48;;;;;;;6.25;3.50;;;;;;;4.19;43.64;92864.72;2052460;70;20156;-71
2022/02/20 07:01:14;;;;;;;6.57;3.30;;;;;;;4.12;43.23;92860.66;2052414;70;20151;-71
2022/02/20 07:03:40;;;;;;;6.43;3.50;;;;;;;4.10;43.04;92854.91;2052366;70;20233;-71
2022/02/20 07:06:06;;;;;;;4.10;2.85;;;;;;;4.41;43.22;92861.06;2052265;70;20586;-71
2022/02/20 07:08:32;;;;;;;5.72;2.17;;;;;;;4.50;43.95;92868.06;2052338;70;20146;-72
2022/02/20 07:10:57;;;;;;;5.78;3.20;;;;;;;4.19;44.93;92873.06;2052343;70;20161;-71
2022/02/20 07:13:23;;;;;;;4.82;2.85;;;;;;;3.88;46.44;92867.63;2052467;70;20265;-70
2022/02/20 07:15:48;;;;;;;3.67;2.30;;;;;;;4.07;46.69;92884.63;2052312;70;20146;-72
2022/02/20 07:18:17;;;;;;;5.30;2.97;;;;;;;4.38;45.64;92875.38;2052333;70;20150;-71
2022/02/20 07:20:43;;;;;;;10.80;3.85;;;;;;;4.53;45.34;92872.50;2052155;70;20687;-70
2022/02/20 07:23:10;;;;;;;18.02;8.00;;;;;;;4.45;44.34;92857.88;2052288;70;20146;-72
2022/02/20 07:25:36;;;;;;;6.70;4.00;;;;;;;4.34;43.82;92859.03;2052321;70;20146;-72
2022/02/20 07:28:01;;;;;;;7.40;3.15;;;;;;;4.53;43.62;92853.72;2052302;70;20154;-73
2022/02/20 07:30:28;;;;;;;6.10;2.80;;;;;;;4.65;43.34;92856.81;2052345;70;20179;-76
2022/02/20 07:33:00;;;;;;;4.38;2.20;;;;;;;4.68;43.02;92838.94;2052331;70;20219;-72
2022/02/20 07:35:26;;;;;;;7.45;3.03;;;;;;;4.80;43.49;92828.03;2052334;70;20150;-72
2022/02/20 07:37:52;;;;;;;7.38;3.13;;;;;;;4.88;43.81;92836.38;2052401;70;20235;-73
2022/02/20 07:40:18;;;;;;;5.88;2.95;;;;;;;4.75;43.85;92843.72;2052381;70;20174;-72
2022/02/20 07:42:45;;;;;;;7.05;3.47;;;;;;;4.57;44.73;92847.75;2052262;70;20146;-72
2022/02/20 07:45:11;;;;;;;5.80;2.67;;;;;;;4.87;44.93;92848.84;2065229;69;20166;-71
2022/02/20 07:47:55;;;;;;;7.03;2.90;;;;;;;5.06;44.58;92854.63;2052213;70;20146;-71
2022/02/20 07:50:23;;;;;;;8.27;2.97;;;;;;;5.21;43.94;92848.16;2052140;70;20594;-71
2022/02/20 07:52:49;;;;;;;7.82;3.80;;;;;;;4.79;44.96;92849.63;2052352;70;20215;-72
2022/02/20 07:55:16;;;;;;;7.45;3.58;;;;;;;5.38;44.15;92862.13;2052349;70;20587;-71
2022/02/20 07:57:46;;;;;;;8.07;3.40;;;;;;;5.63;43.44;92870.44;2052249;69;20142;-73
2022/02/20 08:00:14;;;;;;;4.93;3.10;;;;;;;5.80;43.49;92864.13;2052295;70;20178;-72
2022/02/20 08:02:40;;;;;;;11.65;4.22;;;;;;;5.89;42.75;92869.03;2052225;70;20158;-72
2022/02/20 08:05:06;;;;;;;10.10;4.45;;;;;;;5.74;42.82;92872.00;2052085;70;20188;-71
2022/02/20 08:07:32;;;;;;;11.07;4.32;;;;;;;5.58;43.12;92885.38;2052205;70;20154;-71
2022/02/20 08:09:57;;;;;;;11.95;5.40;;;;;;;5.88;43.22;92875.22;2051998;69;20493;-70
2022/02/20 08:12:23;;;;;;;12.73;5.45;;;;;;;6.20;42.71;92871.50;2064646;69;20636;-70
2022/02/20 08:14:48;;;;;;;9.75;5.10;;;;;;;6.24;42.62;92861.38;2051593;70;20142;-73
2022/02/20 08:17:14;;;;;;;11.20;5.25;;;;;;;6.42;42.90;92876.06;2052161;70;20242;-72
2022/02/20 08:19:40;;;;;;;9.32;4.88;;;;;;;6.46;43.16;92875.59;2052185;69;20233;-72
2022/02/20 08:22:06;;;;;;;15.52;5.63;;;;;;;6.27;43.99;92876.97;2052070;69;20553;-72
2022/02/20 08:24:32;;;;;;;14.20;5.90;;;;;;;6.30;43.68;92870.22;2052293;70;20157;-71
2022/02/20 08:26:57;;;;;;;20.88;6.50;;;;;;;6.24;43.96;92874.63;2052188;70;20158;-70
2022/02/20 08:29:24;;;;;;;13.27;5.57;;;;;;;6.26;44.08;92883.88;2065094;69;20154;-72
2022/02/20 08:31:50;;;;;;;10.82;5.80;;;;;;;6.53;44.13;92881.09;2052227;70;20264;-71
2022/02/20 08:34:16;;;;;;;14.68;6.35;;;;;;;6.79;43.17;92882.44;2065214;69;20583;-71
2022/02/20 08:36:42;;;;;;;12.95;6.07;;;;;;;6.78;42.60;92892.16;2052058;70;20181;-71
2022/02/20 08:39:07;;;;;;;18.73;6.20;;;;;;;6.85;43.40;92894.06;2052162;70;20234;-71
2022/02/20 08:41:35;;;;;;;15.48;7.10;;;;;;;7.18;43.00;92890.22;2052064;69;20146;-72
2022/02/20 08:44:03;;;;;;;13.55;7.55;;;;;;;7.36;42.58;92897.22;2065116;69;20541;-72
2022/02/20 08:46:29;;;;;;;10.75;6.32;;;;;;;7.25;42.97;92904.13;2052083;70;20150;-72
2022/02/20 08:48:56;;;;;;;9.98;4.60;;;;;;;6.66;44.01;92898.84;2052173;70;20164;-77
2022/02/20 08:51:21;;;;;;;11.65;5.75;;;;;;;7.18;44.33;92901.44;2052078;70;20146;-73
2022/02/20 08:53:47;;;;;;;14.20;4.93;;;;;;;7.24;43.26;92894.25;2052050;69;20142;-74
2022/02/20 08:56:13;;;;;;;13.35;6.63;;;;;;;7.21;43.09;92894.66;2052093;70;20524;-72
2022/02/20 08:58:40;;;;;;;35.15;16.35;;;;;;;7.23;42.88;92898.34;2052029;70;20541;-74
2022/02/20 09:01:06;;;;;;;32.97;15.43;;;;;;;7.60;42.58;92893.41;2052038;70;20145;-76
2022/02/20 09:03:32;;;;;;;40.22;13.05;;;;;;;7.79;43.45;92895.53;2052475;70;20536;-74
2022/02/20 09:05:57;;;;;;;21.08;9.82;;;;;;;8.00;42.55;92894.22;2064935;69;20142;-76
2022/02/20 09:08:23;;;;;;;9.18;4.90;;;;;;;8.09;41.96;92876.66;2052157;70;20173;-73
2022/02/20 09:10:49;;;;;;;7.03;3.72;;;;;;;8.04;41.43;92875.63;2052135;70;20154;-74
2022/02/20 09:13:16;;;;;;;7.38;3.00;;;;;;;7.92;40.71;92868.38;2052032;70;20733;-71
2022/02/20 09:15:42;;;;;;;9.15;4.68;;;;;;;8.06;40.35;92872.22;2052164;70;20145;-72
2022/02/20 09:18:08;;;;;;;11.82;5.57;;;;;;;7.66;42.58;92875.59;2052024;69;20233;-71
2022/02/20 09:20:34;;;;;;;11.90;5.03;;;;;;;8.02;42.53;92871.94;2064897;69;20241;-73
2022/02/20 09:22:59;;;;;;;8.55;3.60;;;;;;;8.29;40.82;92871.75;2052012;70;20153;-73
2022/02/20 09:25:25;;;;;;;11.77;5.85;;;;;;;8.06;41.89;92875.00;2051976;70;20262;-74
2022/02/20 09:27:51;;;;;;;10.35;5.25;;;;;;;8.03;41.86;92879.75;2052226;70;20146;-73
2022/02/20 09:30:17;;;;;;;15.10;7.47;;;;;;;7.91;41.66;92873.25;2052005;70;20605;-74
2022/02/20 09:32:43;;;;;;;11.57;6.47;;;;;;;8.08;41.73;92861.16;2052248;70;20153;-75
2022/02/20 09:35:11;;;;;;;11.15;5.32;;;;;;;8.05;42.07;92859.53;2051907;70;20590;-76
2022/02/20 09:37:36;;;;;;;14.18;5.90;;;;;;;8.08;42.06;92858.34;2062193;69;20154;-75
2022/02/20 09:40:04;;;;;;;10.63;5.40;;;;;;;8.03;43.03;92859.38;2052020;70;20150;-76
2022/02/20 09:42:29;;;;;;;12.07;4.80;;;;;;;7.94;42.70;92857.31;2052003;70;20582;-74
2022/02/20 09:44:55;;;;;;;10.48;4.65;;;;;;;8.15;42.50;92869.44;2051950;70;20170;-73
2022/02/20 09:47:26;;;;;;;8.77;4.80;;;;;;;8.25;42.93;92872.22;2051959;70;20227;-74
2022/02/20 09:49:57;;;;;;;10.48;5.57;;;;;;;8.37;42.75;92880.78;2051850;70;20227;-73
2022/02/20 09:52:22;;;;;;;13.00;5.68;;;;;;;8.31;42.34;92878.25;2052096;70;20147;-72
2022/02/20 09:54:48;;;;;;;11.43;6.25;;;;;;;8.06;42.63;92881.38;2064887;69;20155;-73
2022/02/20 09:57:13;;;;;;;16.60;7.53;;;;;;;8.53;43.99;92873.53;2052058;70;20212;-73
2022/02/20 09:59:39;;;;;;;19.20;8.75;;;;;;;8.89;43.12;92875.34;2051923;70;20143;-73
2022/02/20 10:02:10;;;;;;;8.10;4.32;;;;;;;8.96;41.63;92868.06;2051949;70;20554;-70
2022/02/20 10:04:50;;;;;;;5.30;2.83;;;;;;;9.42;40.57;92875.41;2052045;70;20245;-72
2022/02/20 10:07:39;;;;;;;3.50;2.40;;;;;;;9.68;40.26;92884.88;2051855;70;20152;-72
2022/02/20 10:10:14;;;;;;;6.82;2.80;;;;;;;9.55;40.08;92880.50;2050315;70;20246;-72
2022/02/20 10:12:40;;;;;;;4.32;2.70;;;;;;;9.60;40.39;92875.91;2052402;70;20158;-72
2022/02/20 10:15:29;;;;;;;3.47;1.90;;;;;;;9.67;39.47;92874.97;2052426;70;20713;-72
2022/02/20 10:18:23;;;;;;;6.30;2.30;;;;;;;9.38;39.08;92870.25;2065344;69;20204;-73
2022/02/20 10:21:10;;;;;;;2.05;1.25;;;;;;;9.53;39.85;92871.97;2062591;69;20161;-70
2022/02/20 10:24:04;;;;;;;2.78;1.77;;;;;;;10.64;39.98;92872.16;2052452;70;20695;-72
2022/02/20 10:26:49;;;;;;;4.40;2.20;;;;;;;11.14;38.70;92864.66;2052483;70;20620;-70
2022/02/20 10:29:33;;;;;;;18.13;7.50;;;;;;;11.66;38.62;92852.25;2052384;70;20242;-70
2022/02/20 10:32:00;;;;;;;8.45;4.28;;;;;;;12.15;38.24;92858.66;2052355;70;20607;-70
2022/02/20 10:34:30;;;;;;;3.20;1.75;;;;;;;12.52;36.27;92851.53;2052335;70;20173;-70
2022/02/20 10:36:55;;;;;;;3.15;1.95;;;;;;;12.41;36.32;92850.94;2052256;70;20247;-72
2022/02/20 10:39:32;;;;;;;3.75;2.10;;;;;;;13.57;36.02;92850.88;2052308;70;20586;-72
2022/02/20 10:42:01;;;;;;;2.13;1.38;;;;;;;14.22;35.24;92847.78;2052370;70;20178;-75
2022/02/20 10:44:27;;;;;;;2.50;1.60;;;;;;;14.24;34.33;92854.25;2052339;70;20142;-74
2022/02/20 10:47:14;;;;;;;3.80;1.50;;;;;;;14.20;32.82;92842.75;2052336;70;20234;-75
2022/02/20 10:49:41;;;;;;;3.10;1.50;;;;;;;15.00;33.12;92849.41;2052408;69;20150;-72
2022/02/20 10:52:19;;;;;;;3.22;1.90;;;;;;;15.09;32.68;92847.69;2052154;70;20146;-75
2022/02/20 10:55:00;;;;;;;3.80;2.08;;;;;;;16.43;31.62;92832.97;2052369;69;20138;-74
2022/02/20 10:57:38;;;;;;;5.38;3.15;;;;;;;17.30;30.00;92830.03;2065290;69;20255;-75
2022/02/20 11:00:20;;;;;;;5.90;3.83;;;;;;;16.84;29.85;92826.13;2052500;70;20147;-74
2022/02/20 11:02:46;;;;;;;2.83;1.25;;;;;;;16.21;31.25;92830.66;2052306;69;20190;-73
2022/02/20 11:05:12;;;;;;;1.30;1.02;;;;;;;16.98;29.88;92816.03;2052237;70;20177;-72
2022/02/20 11:07:39;;;;;;;3.72;1.30;;;;;;;18.21;28.88;92820.53;2052318;70;20282;-73
2022/02/20 11:10:10;;;;;;;1.25;0.90;;;;;;;18.70;28.86;92820.06;2052250;70;20598;-74
2022/02/20 11:12:38;;;;;;;3.25;1.45;;;;;;;19.34;27.89;92810.63;2052340;70;20169;-73
2022/02/20 11:15:07;;;;;;;2.38;1.23;;;;;;;20.40;26.94;92805.78;2051881;70;20197;-75
2022/02/20 11:17:35;;;;;;;1.83;1.15;;;;;;;21.45;24.79;92803.31;2051663;70;20142;-76
2022/02/20 11:20:03;;;;;;;1.33;1.05;;;;;;;22.59;23.18;92788.38;2051143;70;20193;-72
2022/02/20 11:22:30;;;;;;;1.25;0.90;;;;;;;24.19;22.08;92794.31;2051710;70;20154;-72
2022/02/20 11:25:01;;;;;;;2.55;1.10;;;;;;;25.31;21.50;92796.16;2052152;70;20286;-71
2022/02/20 11:27:28;;;;;;;2.03;1.38;;;;;;;24.83;21.43;92800.06;2052162;70;20284;-73
2022/02/20 11:29:53;;;;;;;1.65;0.80;;;;;;;25.04;19.97;92789.44;2052184;70;20153;-72
2022/02/20 11:32:20;;;;;;;2.60;1.00;;;;;;;27.22;18.85;92783.22;2065154;69;20143;-72
2022/02/20 11:34:47;;;;;;;1.27;0.73;;;;;;;28.31;18.34;92778.63;2052052;70;20232;-73
2022/02/20 11:37:14;;;;;;;2.33;0.80;;;;;;;26.13;17.41;92787.28;2052204;70;20194;-71
2022/02/20 11:40:00;;;;;;;1.20;0.85;;;;;;;26.67;19.57;92783.13;2052223;69;20165;-72
2022/02/20 11:42:26;;;;;;;2.75;1.00;;;;;;;28.26;18.70;92783.00;2052174;70;20172;-71
2022/02/20 11:44:53;;;;;;;0.98;0.70;;;;;;;28.03;18.43;92773.69;2052226;70;20157;-73
2022/02/20 11:47:34;;;;;;;2.50;0.70;;;;;;;27.69;17.49;92765.81;2052139;70;20211;-72
2022/02/20 11:50:15;;;;;;;0.30;0.30;;;;;;;26.96;17.31;92761.50;2052077;70;20137;-72
2022/02/20 11:52:55;;;;;;;0.70;0.57;;;;;;;28.94;16.47;92760.91;2052122;70;20138;-71